Time;durP1;ratioP1;P1;durP2;ratioP2;P2;SDS_P1;SDS_P2;PMS_P1;PMS_P2;Temp;Humidity;BMP_temperature;BMP_pressure;BME280_temperature;BME280_humidity;BME280_pressure;Samples;Min_cycle;Max_cycle;Signal;HPM_P1;HPM_P2
2022/03/02 00:02:24;;;;;;;22.14;14.76;;;;;;;;;;5327263;28;20023;-68
2022/03/02 00:04:55;;;;;;;25.08;15.74;;;;;;;;;;5327326;28;20026;-68
2022/03/02 00:07:26;;;;;;;28.52;15.82;;;;;;;;;;5327781;28;20019;-68
2022/03/02 00:09:58;;;;;;;27.52;17.13;;;;;;;;;;5326321;28;20513;-68
2022/03/02 00:12:30;;;;;;;28.85;15.27;;;;;;;;;;5327660;28;20481;-68
2022/03/02 00:15:01;;;;;;;23.77;15.50;;;;;;;;;;5326868;28;20047;-69
2022/03/02 00:17:32;;;;;;;23.75;15.43;;;;;;;;;;5327145;28;20023;-68
2022/03/02 00:20:04;;;;;;;25.10;15.57;;;;;;;;;;5327312;28;20073;-68
2022/03/02 00:22:37;;;;;;;31.70;15.57;;;;;;;;;;5326742;28;20016;-68
2022/03/02 00:25:08;;;;;;;27.55;17.27;;;;;;;;;;5327465;28;20085;-68
2022/03/02 00:27:40;;;;;;;26.35;16.55;;;;;;;;;;5327391;28;20035;-68
2022/03/02 00:30:11;;;;;;;27.23;16.52;;;;;;;;;;5326448;28;20050;-68
2022/03/02 00:32:42;;;;;;;26.73;17.27;;;;;;;;;;5326916;28;20059;-69
2022/03/02 00:35:13;;;;;;;28.00;16.77;;;;;;;;;;5327227;28;20484;-69
2022/03/02 00:37:45;;;;;;;25.35;15.80;;;;;;;;;;5326084;28;20051;-68
2022/03/02 00:40:16;;;;;;;26.42;16.94;;;;;;;;;;5326170;28;20016;-68
2022/03/02 00:42:47;;;;;;;28.70;16.48;;;;;;;;;;5326664;28;20099;-69
2022/03/02 00:45:18;;;;;;;26.13;16.73;;;;;;;;;;5326424;28;20143;-68
2022/03/02 00:47:49;;;;;;;26.94;15.90;;;;;;;;;;5326511;28;20478;-69
2022/03/02 00:50:21;;;;;;;28.58;16.48;;;;;;;;;;5326287;28;20524;-69
2022/03/02 00:52:52;;;;;;;23.83;14.80;;;;;;;;;;5326403;28;20525;-68
2022/03/02 00:55:23;;;;;;;22.23;15.20;;;;;;;;;;5326909;28;20098;-68
2022/03/02 00:57:55;;;;;;;23.55;14.85;;;;;;;;;;5325638;28;20065;-68
2022/03/02 01:00:26;;;;;;;24.15;14.52;;;;;;;;;;5326768;28;20076;-68
2022/03/02 01:02:57;;;;;;;27.67;14.85;;;;;;;;;;5326324;28;20016;-68
2022/03/02 01:05:29;;;;;;;24.30;15.24;;;;;;;;;;5326080;28;20024;-68
2022/03/02 01:08:00;;;;;;;26.73;15.50;;;;;;;;;;5326269;28;20020;-69
2022/03/02 01:10:31;;;;;;;23.58;14.25;;;;;;;;;;5326552;28;20016;-68
2022/03/02 01:13:02;;;;;;;22.60;15.23;;;;;;;;;;5325598;28;20051;-68
2022/03/02 01:15:34;;;;;;;25.33;16.02;;;;;;;;;;5326332;28;20017;-68
2022/03/02 01:18:05;;;;;;;26.58;14.98;;;;;;;;;;5326310;28;20520;-69
2022/03/02 01:20:36;;;;;;;25.24;15.42;;;;;;;;;;5325379;28;20024;-68
2022/03/02 01:23:08;;;;;;;24.70;15.00;;;;;;;;;;5326295;28;20456;-68
2022/03/02 01:25:39;;;;;;;24.83;14.88;;;;;;;;;;5325483;28;20015;-68
2022/03/02 01:28:10;;;;;;;27.85;15.85;;;;;;;;;;5325880;28;20024;-68
2022/03/02 01:30:41;;;;;;;27.04;16.04;;;;;;;;;;5325731;28;20023;-69
2022/03/02 01:33:12;;;;;;;26.58;15.93;;;;;;;;;;5325433;28;20016;-68
2022/03/02 01:35:44;;;;;;;27.38;15.80;;;;;;;;;;5326015;28;20102;-68
2022/03/02 01:38:15;;;;;;;30.75;15.32;;;;;;;;;;5326265;28;20058;-69
2022/03/02 01:40:46;;;;;;;28.50;16.48;;;;;;;;;;5324784;28;20015;-69
2022/03/02 01:43:17;;;;;;;26.68;16.20;;;;;;;;;;5326410;28;20024;-69
2022/03/02 01:45:48;;;;;;;25.45;16.35;;;;;;;;;;5325251;28;20016;-66
2022/03/02 01:48:19;;;;;;;32.50;16.10;;;;;;;;;;5325180;28;20027;-68
2022/03/02 01:50:51;;;;;;;29.36;16.00;;;;;;;;;;5324986;28;20053;-67
2022/03/02 01:53:22;;;;;;;25.33;15.20;;;;;;;;;;5325793;28;20036;-68
2022/03/02 01:55:54;;;;;;;26.90;15.95;;;;;;;;;;5324282;28;20424;-69
2022/03/02 01:58:26;;;;;;;29.70;16.33;;;;;;;;;;5325764;28;20054;-68
2022/03/02 02:00:58;;;;;;;25.73;15.82;;;;;;;;;;5324569;28;20059;-68
2022/03/02 02:03:29;;;;;;;28.10;15.82;;;;;;;;;;5325224;28;20064;-68
2022/03/02 02:06:01;;;;;;;22.10;14.45;;;;;;;;;;5325275;28;20398;-68
2022/03/02 02:08:32;;;;;;;23.67;15.68;;;;;;;;;;5324207;28;20114;-68
2022/03/02 02:11:03;;;;;;;26.32;15.44;;;;;;;;;;5325203;28;20036;-68
2022/03/02 02:13:35;;;;;;;25.30;15.35;;;;;;;;;;5324798;28;20054;-68
2022/03/02 02:16:06;;;;;;;25.52;14.82;;;;;;;;;;5324331;28;20382;-68
2022/03/02 02:18:38;;;;;;;23.15;15.15;;;;;;;;;;5324779;28;20019;-67
2022/03/02 02:21:10;;;;;;;26.95;15.55;;;;;;;;;;5324827;28;20068;-68
2022/03/02 02:23:41;;;;;;;24.90;15.52;;;;;;;;;;5324211;28;20383;-68
2022/03/02 02:26:12;;;;;;;24.22;15.12;;;;;;;;;;5324960;28;20046;-69
2022/03/02 02:28:43;;;;;;;23.83;15.60;;;;;;;;;;5324069;28;20127;-69
2022/03/02 02:31:15;;;;;;;21.02;14.02;;;;;;;;;;5324491;28;20032;-69
2022/03/02 02:33:46;;;;;;;24.52;14.82;;;;;;;;;;5324594;28;20145;-69
2022/03/02 02:36:18;;;;;;;23.90;14.88;;;;;;;;;;5324265;28;20024;-69
2022/03/02 02:38:50;;;;;;;25.15;14.77;;;;;;;;;;5324420;28;20474;-69
2022/03/02 02:41:21;;;;;;;24.92;14.18;;;;;;;;;;5324795;28;20028;-66
2022/03/02 02:43:52;;;;;;;24.58;14.32;;;;;;;;;;5323271;28;20057;-69
2022/03/02 02:46:23;;;;;;;28.96;14.90;;;;;;;;;;5324846;28;20050;-69
2022/03/02 02:48:54;;;;;;;21.44;14.76;;;;;;;;;;5324240;28;20347;-68
2022/03/02 02:51:25;;;;;;;22.84;14.46;;;;;;;;;;5323911;28;20058;-67
2022/03/02 02:53:57;;;;;;;23.48;15.06;;;;;;;;;;5324008;28;20451;-67
2022/03/02 02:56:28;;;;;;;27.90;15.70;;;;;;;;;;5324520;28;20030;-67
2022/03/02 02:58:59;;;;;;;24.80;14.70;;;;;;;;;;5323234;28;20044;-68
2022/03/02 03:01:30;;;;;;;24.70;14.92;;;;;;;;;;5324234;28;20393;-68
2022/03/02 03:04:03;;;;;;;27.72;15.14;;;;;;;;;;5322677;28;20027;-68
2022/03/02 03:06:34;;;;;;;23.55;13.77;;;;;;;;;;5323688;28;20480;-67
2022/03/02 03:09:05;;;;;;;23.38;14.88;;;;;;;;;;5323790;28;20050;-67
2022/03/02 03:11:38;;;;;;;24.83;14.20;;;;;;;;;;5322956;28;20039;-67
2022/03/02 03:14:10;;;;;;;22.52;13.60;;;;;;;;;;5323732;28;20479;-67
2022/03/02 03:16:42;;;;;;;26.15;15.20;;;;;;;;;;5323514;28;20053;-67
2022/03/02 03:19:14;;;;;;;23.15;14.02;;;;;;;;;;5322671;28;20039;-67
2022/03/02 03:21:45;;;;;;;21.13;13.52;;;;;;;;;;5323117;28;20027;-67
2022/03/02 03:24:16;;;;;;;26.00;13.38;;;;;;;;;;5323741;28;20061;-67
2022/03/02 03:26:47;;;;;;;22.54;13.56;;;;;;;;;;5322390;28;20024;-67
2022/03/02 03:29:18;;;;;;;22.06;13.44;;;;;;;;;;5323759;28;20043;-67
2022/03/02 03:31:49;;;;;;;20.84;13.02;;;;;;;;;;5322824;28;20424;-67
2022/03/02 03:34:20;;;;;;;22.40;12.70;;;;;;;;;;5323072;28;20030;-67
2022/03/02 03:36:52;;;;;;;22.14;12.26;;;;;;;;;;5323294;28;20051;-67
2022/03/02 03:39:23;;;;;;;18.45;12.93;;;;;;;;;;5322872;28;20037;-67
2022/03/02 03:41:55;;;;;;;23.95;13.95;;;;;;;;;;5323064;28;20103;-68
2022/03/02 03:44:26;;;;;;;22.48;12.93;;;;;;;;;;5323716;28;20019;-68
2022/03/02 03:46:57;;;;;;;20.30;12.52;;;;;;;;;;5322451;28;20012;-67
2022/03/02 03:49:29;;;;;;;18.94;11.72;;;;;;;;;;5323575;28;20020;-67
2022/03/02 03:52:00;;;;;;;20.17;11.82;;;;;;;;;;5323053;28;20035;-67
2022/03/02 03:54:31;;;;;;;20.17;12.32;;;;;;;;;;5322346;28;20016;-67
2022/03/02 03:57:04;;;;;;;18.60;11.65;;;;;;;;;;5323430;28;20020;-67
2022/03/02 03:59:35;;;;;;;18.85;11.50;;;;;;;;;;5323358;28;20442;-68
2022/03/02 04:02:06;;;;;;;18.10;11.66;;;;;;;;;;5322411;28;20044;-67
2022/03/02 04:04:37;;;;;;;19.50;12.68;;;;;;;;;;5323122;28;20023;-67
2022/03/02 04:07:08;;;;;;;20.15;12.27;;;;;;;;;;5322373;28;20027;-67
2022/03/02 04:09:39;;;;;;;19.20;11.42;;;;;;;;;;5323285;28;20546;-67
2022/03/02 04:12:11;;;;;;;19.04;11.46;;;;;;;;;;5323084;28;20027;-67
2022/03/02 04:14:42;;;;;;;19.10;11.68;;;;;;;;;;5324519;28;20044;-67
2022/03/02 04:17:13;;;;;;;16.50;10.66;;;;;;;;;;5326848;28;20027;-67
2022/03/02 04:19:44;;;;;;;19.08;10.98;;;;;;;;;;5326551;28;20446;-67
2022/03/02 04:22:15;;;;;;;21.10;11.92;;;;;;;;;;5326584;28;20053;-68
2022/03/02 04:24:47;;;;;;;22.10;12.10;;;;;;;;;;5326664;27;20015;-68
2022/03/02 04:27:18;;;;;;;19.25;11.48;;;;;;;;;;5327053;28;20023;-68
2022/03/02 04:29:49;;;;;;;19.33;11.90;;;;;;;;;;5325744;28;20438;-68
2022/03/02 04:32:21;;;;;;;19.80;11.05;;;;;;;;;;5326919;28;20019;-68
2022/03/02 04:34:52;;;;;;;17.76;10.96;;;;;;;;;;5326478;28;20023;-69
2022/03/02 04:37:23;;;;;;;18.13;12.05;;;;;;;;;;5326095;28;20081;-67
2022/03/02 04:39:55;;;;;;;20.65;11.30;;;;;;;;;;5326187;28;20379;-68
2022/03/02 04:42:26;;;;;;;18.28;11.42;;;;;;;;;;5325892;28;20023;-68
2022/03/02 04:44:57;;;;;;;20.40;11.48;;;;;;;;;;5325969;28;20060;-68
2022/03/02 04:47:28;;;;;;;20.98;11.07;;;;;;;;;;5326809;28;20431;-67
2022/03/02 04:49:59;;;;;;;20.45;11.50;;;;;;;;;;5325269;28;20016;-67
2022/03/02 04:52:31;;;;;;;19.82;11.24;;;;;;;;;;5326365;28;20039;-68
2022/03/02 04:55:06;;;;;;;15.98;10.27;;;;;;;;;;5326278;27;20015;-67
2022/03/02 04:57:42;;;;;;;21.50;12.35;;;;;;;;;;5325667;28;20020;-68
2022/03/02 05:00:15;;;;;;;20.00;11.27;;;;;;;;;;5326146;28;20011;-68
2022/03/02 05:02:46;;;;;;;18.75;11.10;;;;;;;;;;5325837;28;20422;-68
2022/03/02 05:05:18;;;;;;;19.67;11.68;;;;;;;;;;5325349;28;20137;-67
2022/03/02 05:07:50;;;;;;;18.60;11.30;;;;;;;;;;5325336;28;20031;-68
2022/03/02 05:10:22;;;;;;;17.92;10.73;;;;;;;;;;5326462;28;20342;-68
2022/03/02 05:12:54;;;;;;;21.15;11.45;;;;;;;;;;5324455;28;20437;-68
2022/03/02 05:15:25;;;;;;;17.92;11.40;;;;;;;;;;5326190;28;20050;-68
2022/03/02 05:17:56;;;;;;;20.20;11.27;;;;;;;;;;5324456;28;20061;-67
2022/03/02 05:20:28;;;;;;;17.52;10.05;;;;;;;;;;5326435;28;20534;-67
2022/03/02 05:22:59;;;;;;;17.23;11.52;;;;;;;;;;5325277;28;20023;-69
2022/03/02 05:25:30;;;;;;;21.48;11.58;;;;;;;;;;5324388;28;20027;-69
2022/03/02 05:28:01;;;;;;;17.73;10.68;;;;;;;;;;5325683;28;20036;-67
2022/03/02 05:30:32;;;;;;;19.90;10.20;;;;;;;;;;5325567;28;20011;-67
2022/03/02 05:33:04;;;;;;;18.33;11.13;;;;;;;;;;5324747;28;20122;-67
2022/03/02 05:35:35;;;;;;;19.42;10.90;;;;;;;;;;5325518;28;20046;-67
2022/03/02 05:38:07;;;;;;;17.62;11.06;;;;;;;;;;5325912;28;20076;-67
2022/03/02 05:40:38;;;;;;;20.60;11.13;;;;;;;;;;5324553;28;20034;-69
2022/03/02 05:43:09;;;;;;;17.20;10.52;;;;;;;;;;5325241;28;20022;-66
2022/03/02 05:45:40;;;;;;;16.18;9.72;;;;;;;;;;5324753;28;20019;-67
2022/03/02 05:48:11;;;;;;;20.33;10.35;;;;;;;;;;5325226;28;20023;-67
2022/03/02 05:50:42;;;;;;;18.58;10.58;;;;;;;;;;5325128;28;20026;-68
2022/03/02 05:53:13;;;;;;;18.33;10.75;;;;;;;;;;5324227;28;20024;-67
2022/03/02 05:55:45;;;;;;;18.83;11.13;;;;;;;;;;5325020;28;20045;-68
2022/03/02 05:58:16;;;;;;;17.17;10.13;;;;;;;;;;5325640;28;20023;-67
2022/03/02 06:00:47;;;;;;;15.94;9.18;;;;;;;;;;5324048;28;20098;-67
2022/03/02 06:03:20;;;;;;;15.93;9.50;;;;;;;;;;5325169;28;20015;-67
2022/03/02 06:05:51;;;;;;;17.80;9.38;;;;;;;;;;5324422;28;20050;-67
2022/03/02 06:08:22;;;;;;;18.12;10.14;;;;;;;;;;5324516;28;20043;-67
2022/03/02 06:10:54;;;;;;;16.88;10.07;;;;;;;;;;5324506;28;20015;-67
2022/03/02 06:13:25;;;;;;;19.15;9.40;;;;;;;;;;5324832;28;20078;-67
2022/03/02 06:15:59;;;;;;;16.13;9.23;;;;;;;;;;5323261;28;20023;-67
2022/03/02 06:18:31;;;;;;;17.42;9.88;;;;;;;;;;5324429;28;20034;-67
2022/03/02 06:21:02;;;;;;;16.67;10.52;;;;;;;;;;5323852;28;20023;-67
2022/03/02 06:23:33;;;;;;;19.30;8.98;;;;;;;;;;5324465;28;20043;-68
2022/03/02 06:26:04;;;;;;;17.33;9.98;;;;;;;;;;5324363;28;20209;-67
2022/03/02 06:28:35;;;;;;;17.92;9.40;;;;;;;;;;5323459;28;20016;-67
2022/03/02 06:31:07;;;;;;;15.64;9.10;;;;;;;;;;5324070;28;20028;-67
2022/03/02 06:33:38;;;;;;;17.83;8.90;;;;;;;;;;5324181;28;20012;-67
2022/03/02 06:36:09;;;;;;;17.17;8.30;;;;;;;;;;5323283;28;20486;-67
2022/03/02 06:38:41;;;;;;;17.77;9.07;;;;;;;;;;5323257;28;20015;-68
2022/03/02 06:41:24;;;;;;;17.13;9.98;;;;;;;;;;5323964;28;20031;-67
2022/03/02 06:43:55;;;;;;;17.08;8.88;;;;;;;;;;5323066;28;20031;-67
2022/03/02 06:46:26;;;;;;;15.90;9.63;;;;;;;;;;5324278;28;20035;-67
2022/03/02 06:49:03;;;;;;;18.67;9.63;;;;;;;;;;5322701;28;20261;-67
2022/03/02 06:51:38;;;;;;;14.40;8.63;;;;;;;;;;5323638;28;20031;-67
2022/03/02 06:54:11;;;;;;;15.82;8.27;;;;;;;;;;5324100;28;20019;-66
2022/03/02 06:56:46;;;;;;;17.13;10.05;;;;;;;;;;5323122;28;20053;-67
2022/03/02 06:59:28;;;;;;;16.17;8.80;;;;;;;;;;5324055;28;20098;-67
2022/03/02 07:02:02;;;;;;;15.50;9.45;;;;;;;;;;5323440;28;20386;-67
2022/03/02 07:04:43;;;;;;;18.42;10.13;;;;;;;;;;5322745;28;20103;-67
2022/03/02 07:07:15;;;;;;;17.85;9.60;;;;;;;;;;5323783;28;20020;-67
2022/03/02 07:09:46;;;;;;;16.48;8.68;;;;;;;;;;5323286;28;20336;-67
2022/03/02 07:12:18;;;;;;;15.57;8.93;;;;;;;;;;5322980;28;20042;-68
2022/03/02 07:14:50;;;;;;;17.73;9.35;;;;;;;;;;5322973;28;20051;-67
2022/03/02 07:17:21;;;;;;;14.02;8.70;;;;;;;;;;5322833;28;20348;-67
2022/03/02 07:19:52;;;;;;;16.98;8.65;;;;;;;;;;5322984;28;20359;-67
2022/03/02 07:22:25;;;;;;;15.98;9.13;;;;;;;;;;5323800;28;20016;-67
2022/03/02 07:25:00;;;;;;;15.68;8.93;;;;;;;;;;5321923;28;20043;-67
2022/03/02 07:27:31;;;;;;;19.80;9.73;;;;;;;;;;5323515;28;20107;-67
2022/03/02 07:30:03;;;;;;;15.10;9.60;;;;;;;;;;5323451;28;20094;-67
2022/03/02 07:32:41;;;;;;;14.75;9.18;;;;;;;;;;5322429;28;20194;-67
2022/03/02 07:35:13;;;;;;;15.13;9.60;;;;;;;;;;5323290;28;20023;-68
2022/03/02 07:37:44;;;;;;;15.25;9.02;;;;;;;;;;5322873;28;20077;-68
2022/03/02 07:40:15;;;;;;;14.80;9.40;;;;;;;;;;5322162;28;20024;-68
2022/03/02 07:42:47;;;;;;;17.85;9.75;;;;;;;;;;5322956;28;20467;-68
2022/03/02 07:45:18;;;;;;;17.85;9.52;;;;;;;;;;5322563;28;20069;-67
2022/03/02 07:47:50;;;;;;;18.10;9.23;;;;;;;;;;5322660;28;20015;-68
2022/03/02 07:50:21;;;;;;;17.55;9.38;;;;;;;;;;5321414;28;20451;-67
2022/03/02 07:52:54;;;;;;;16.96;9.80;;;;;;;;;;5326233;28;20041;-67
2022/03/02 07:55:26;;;;;;;13.07;8.18;;;;;;;;;;5327420;28;20031;-67
2022/03/02 07:57:58;;;;;;;15.63;8.45;;;;;;;;;;5326428;28;20466;-68
2022/03/02 08:00:29;;;;;;;17.50;9.18;;;;;;;;;;5326228;28;20022;-67
2022/03/02 08:03:01;;;;;;;13.55;8.68;;;;;;;;;;5327297;28;20023;-68
2022/03/02 08:05:33;;;;;;;16.70;9.52;;;;;;;;;;5322842;28;20023;-68
2022/03/02 08:08:05;;;;;;;15.05;8.63;;;;;;;;;;5325108;28;20035;-68
2022/03/02 08:10:36;;;;;;;18.48;8.77;;;;;;;;;;5326888;28;20397;-68
2022/03/02 08:13:07;;;;;;;15.84;8.94;;;;;;;;;;5326572;28;20063;-67
2022/03/02 08:15:40;;;;;;;15.43;8.45;;;;;;;;;;5326102;28;20012;-67
2022/03/02 08:18:11;;;;;;;16.45;8.73;;;;;;;;;;5326872;28;20016;-67
2022/03/02 08:20:48;;;;;;;13.80;8.12;;;;;;;;;;5325965;28;20015;-67
2022/03/02 08:23:20;;;;;;;18.33;9.35;;;;;;;;;;5326624;28;20020;-67
2022/03/02 08:25:52;;;;;;;17.27;9.15;;;;;;;;;;5326517;28;20220;-67
2022/03/02 08:28:24;;;;;;;15.52;8.15;;;;;;;;;;5326270;28;20398;-67
2022/03/02 08:30:55;;;;;;;15.55;8.85;;;;;;;;;;5326145;28;20011;-67
2022/03/02 08:33:29;;;;;;;14.73;9.65;;;;;;;;;;5326852;28;20486;-67
2022/03/02 08:36:01;;;;;;;20.58;9.07;;;;;;;;;;5325623;28;20098;-67
2022/03/02 08:38:35;;;;;;;14.10;7.85;;;;;;;;;;5326526;28;20559;-67
2022/03/02 08:41:07;;;;;;;12.48;8.55;;;;;;;;;;5326291;28;20016;-67
2022/03/02 08:43:39;;;;;;;18.45;8.60;;;;;;;;;;5325447;27;20490;-68
2022/03/02 08:46:10;;;;;;;18.40;9.10;;;;;;;;;;5326307;28;20395;-68
2022/03/02 08:48:41;;;;;;;17.86;9.62;;;;;;;;;;5325711;28;20016;-67
2022/03/02 08:51:12;;;;;;;14.95;8.40;;;;;;;;;;5326158;28;20031;-66
2022/03/02 08:53:44;;;;;;;14.88;9.00;;;;;;;;;;5326149;28;20028;-67
2022/03/02 08:56:16;;;;;;;18.50;8.02;;;;;;;;;;5325657;28;20067;-68
2022/03/02 08:58:47;;;;;;;12.60;8.48;;;;;;;;;;5325708;28;20360;-68
2022/03/02 09:01:18;;;;;;;14.70;8.15;;;;;;;;;;5325391;28;20023;-67
2022/03/02 09:03:53;;;;;;;15.77;8.48;;;;;;;;;;5324954;28;20042;-67
2022/03/02 09:06:25;;;;;;;12.57;7.78;;;;;;;;;;5326209;28;20015;-67
2022/03/02 09:08:56;;;;;;;15.32;8.95;;;;;;;;;;5325624;28;20015;-68
2022/03/02 09:11:27;;;;;;;18.60;8.63;;;;;;;;;;5325240;28;20051;-68
2022/03/02 09:14:00;;;;;;;13.15;7.90;;;;;;;;;;5325621;28;20097;-67
2022/03/02 09:16:32;;;;;;;13.80;8.98;;;;;;;;;;5325993;28;20027;-65
2022/03/02 09:19:03;;;;;;;13.90;8.25;;;;;;;;;;5324896;28;20114;-68
2022/03/02 09:21:36;;;;;;;14.75;7.50;;;;;;;;;;5321273;28;20370;-68
2022/03/02 09:24:08;;;;;;;13.23;8.20;;;;;;;;;;5324746;28;20012;-68
2022/03/02 09:26:39;;;;;;;13.25;8.00;;;;;;;;;;5324258;28;20042;-68
2022/03/02 09:29:12;;;;;;;12.88;7.65;;;;;;;;;;5325058;28;20026;-68
2022/03/02 09:31:48;;;;;;;16.30;8.52;;;;;;;;;;5324058;28;20038;-66
2022/03/02 09:34:23;;;;;;;15.45;8.05;;;;;;;;;;5325160;28;20055;-68
2022/03/02 09:36:55;;;;;;;13.82;9.02;;;;;;;;;;5324920;28;20022;-67
2022/03/02 09:39:26;;;;;;;12.32;7.90;;;;;;;;;;5324847;28;20474;-68
2022/03/02 09:42:00;;;;;;;15.57;8.10;;;;;;;;;;5324585;28;20024;-67
2022/03/02 09:44:35;;;;;;;14.15;8.32;;;;;;;;;;5325031;28;20024;-67
2022/03/02 09:47:08;;;;;;;13.57;8.70;;;;;;;;;;5324284;28;20110;-68
2022/03/02 09:49:45;;;;;;;13.82;7.68;;;;;;;;;;5324287;28;20022;-68
2022/03/02 09:52:20;;;;;;;13.15;7.93;;;;;;;;;;5324361;28;20034;-68
2022/03/02 09:54:53;;;;;;;13.15;8.13;;;;;;;;;;5324497;28;20464;-67
2022/03/02 09:57:24;;;;;;;15.25;7.40;;;;;;;;;;5324948;28;20084;-67
2022/03/02 09:59:56;;;;;;;9.10;6.82;;;;;;;;;;5323227;28;20024;-67
2022/03/02 10:02:29;;;;;;;13.90;7.72;;;;;;;;;;5324835;28;20443;-67
2022/03/02 10:05:03;;;;;;;12.10;8.07;;;;;;;;;;5324833;28;20024;-67
2022/03/02 10:07:35;;;;;;;16.00;7.85;;;;;;;;;;5323719;28;20027;-68
2022/03/02 10:10:07;;;;;;;11.30;7.75;;;;;;;;;;5324622;28;20088;-68
2022/03/02 10:12:38;;;;;;;13.15;7.85;;;;;;;;;;5324401;28;20035;-68
2022/03/02 10:15:12;;;;;;;10.80;7.03;;;;;;;;;;5323908;28;20030;-69
2022/03/02 10:17:45;;;;;;;14.50;8.07;;;;;;;;;;5323392;28;20088;-68
2022/03/02 10:20:27;;;;;;;10.27;6.97;;;;;;;;;;5322434;28;20323;-69
2022/03/02 10:23:22;;;;;;;12.60;7.43;;;;;;;;;;5324228;28;20070;-68
2022/03/02 10:26:01;;;;;;;12.45;7.75;;;;;;;;;;5313338;28;20032;-68
2022/03/02 10:28:51;;;;;;;10.75;7.63;;;;;;;;;;5323505;28;20089;-68
2022/03/02 10:31:42;;;;;;;10.70;7.10;;;;;;;;;;5324532;28;20108;-68
2022/03/02 10:34:13;;;;;;;11.18;7.32;;;;;;;;;;5323402;27;20011;-68
2022/03/02 10:36:45;;;;;;;10.65;6.72;;;;;;;;;;5323659;28;20417;-69
2022/03/02 10:39:30;;;;;;;8.70;6.45;;;;;;;;;;5324670;28;20261;-69
2022/03/02 10:42:04;;;;;;;12.00;6.50;;;;;;;;;;5323386;28;20019;-68
2022/03/02 10:44:42;;;;;;;13.27;7.75;;;;;;;;;;5324084;28;20047;-68
2022/03/02 10:47:16;;;;;;;11.13;7.82;;;;;;;;;;5323998;28;20434;-69
2022/03/02 10:49:50;;;;;;;11.43;7.13;;;;;;;;;;5322886;28;20011;-69
2022/03/02 10:52:21;;;;;;;11.43;7.07;;;;;;;;;;5324191;28;20028;-68
2022/03/02 10:54:54;;;;;;;10.10;7.60;;;;;;;;;;5323602;28;20008;-68
2022/03/02 10:57:25;;;;;;;10.63;7.20;;;;;;;;;;5323125;28;20035;-69
2022/03/02 11:00:00;;;;;;;10.82;7.30;;;;;;;;;;5323722;28;20046;-68
2022/03/02 11:02:33;;;;;;;14.98;6.95;;;;;;;;;;5323069;28;20023;-68
2022/03/02 11:05:04;;;;;;;10.23;7.72;;;;;;;;;;5323687;28;20824;-68
2022/03/02 11:07:36;;;;;;;11.32;7.47;;;;;;;;;;5323654;28;20020;-68
2022/03/02 11:10:08;;;;;;;10.56;7.22;;;;;;;;;;5322939;28;20073;-69
2022/03/02 11:12:41;;;;;;;10.82;7.55;;;;;;;;;;5323498;28;20046;-67
2022/03/02 11:15:13;;;;;;;10.15;6.05;;;;;;;;;;5323854;28;20421;-68
2022/03/02 11:17:50;;;;;;;12.02;7.10;;;;;;;;;;5322466;28;20061;-68
2022/03/02 11:20:22;;;;;;;11.35;6.68;;;;;;;;;;5323615;28;20023;-68
2022/03/02 11:22:55;;;;;;;11.38;7.22;;;;;;;;;;5323070;28;20016;-68
2022/03/02 11:25:45;;;;;;;9.80;6.45;;;;;;;;;;5322786;28;20011;-69
2022/03/02 11:28:19;;;;;;;11.27;6.90;;;;;;;;;;5323611;28;20400;-67
2022/03/02 11:30:51;;;;;;;12.65;7.05;;;;;;;;;;5322065;28;20019;-67
2022/03/02 11:33:27;;;;;;;9.85;7.05;;;;;;;;;;5323430;28;20039;-69
2022/03/02 11:36:05;;;;;;;12.43;6.78;;;;;;;;;;5323118;28;20080;-69
2022/03/02 11:38:38;;;;;;;11.18;7.53;;;;;;;;;;5322697;28;20046;-68
2022/03/02 11:41:11;;;;;;;11.05;7.57;;;;;;;;;;5323201;28;20088;-68
2022/03/02 11:43:43;;;;;;;10.30;7.43;;;;;;;;;;5323577;28;20016;-68
2022/03/02 11:46:15;;;;;;;10.00;6.57;;;;;;;;;;5322487;28;20018;-69
2022/03/02 11:48:46;;;;;;;10.75;7.82;;;;;;;;;;5323008;28;20012;-67
2022/03/02 11:51:21;;;;;;;12.45;7.13;;;;;;;;;;5323051;28;20036;-67
2022/03/02 11:53:53;;;;;;;12.60;8.00;;;;;;;;;;5322638;28;20310;-67
2022/03/02 11:56:25;;;;;;;14.68;7.53;;;;;;;;;;5323476;28;20442;-67
2022/03/02 11:58:56;;;;;;;9.38;7.68;;;;;;;;;;5321975;28;20112;-67
2022/03/02 12:01:39;;;;;;;10.00;6.57;;;;;;;;;;5323483;28;20133;-67
2022/03/02 12:04:14;;;;;;;8.95;7.25;;;;;;;;;;5322964;28;20269;-66
2022/03/02 12:06:52;;;;;;;10.88;5.93;;;;;;;;;;5322055;28;20015;-67
2022/03/02 12:09:28;;;;;;;10.63;7.18;;;;;;;;;;5323552;28;20019;-68
2022/03/02 12:12:17;;;;;;;10.95;6.32;;;;;;;;;;5322594;28;20023;-68
2022/03/02 12:14:49;;;;;;;11.18;6.40;;;;;;;;;;5321660;28;20043;-69
2022/03/02 12:17:22;;;;;;;10.98;6.57;;;;;;;;;;5323561;28;20386;-67
2022/03/02 12:19:55;;;;;;;8.00;5.78;;;;;;;;;;5321534;28;20502;-68
2022/03/02 12:22:30;;;;;;;11.07;6.20;;;;;;;;;;5323141;28;20023;-68
2022/03/02 12:25:03;;;;;;;12.40;7.05;;;;;;;;;;5322873;28;20439;-67
2022/03/02 12:27:34;;;;;;;9.68;6.15;;;;;;;;;;5322278;28;20107;-68
2022/03/02 12:30:07;;;;;;;9.27;6.15;;;;;;;;;;5323058;28;20095;-68
2022/03/02 12:32:39;;;;;;;12.85;6.47;;;;;;;;;;5322697;28;20118;-68
2022/03/02 12:35:12;;;;;;;9.00;6.40;;;;;;;;;;5321870;28;20495;-69
2022/03/02 12:37:45;;;;;;;10.35;6.43;;;;;;;;;;5326499;28;20024;-69
2022/03/02 12:40:17;;;;;;;10.63;7.03;;;;;;;;;;5326809;28;20058;-68
2022/03/02 12:42:48;;;;;;;10.68;6.20;;;;;;;;;;5325182;28;20055;-68
2022/03/02 12:45:20;;;;;;;10.00;6.47;;;;;;;;;;5326829;28;20332;-67
2022/03/02 12:47:51;;;;;;;8.73;5.97;;;;;;;;;;5324789;28;20031;-69
2022/03/02 12:50:23;;;;;;;8.80;5.57;;;;;;;;;;5326420;28;20019;-68
2022/03/02 12:52:54;;;;;;;8.48;5.97;;;;;;;;;;5326070;28;20049;-68
2022/03/02 12:55:25;;;;;;;8.57;6.57;;;;;;;;;;5325784;28;20029;-68
2022/03/02 12:57:57;;;;;;;11.85;6.53;;;;;;;;;;5325816;28;20269;-68
2022/03/02 13:00:28;;;;;;;9.70;6.35;;;;;;;;;;5326288;28;20076;-68
2022/03/02 13:02:59;;;;;;;12.48;6.38;;;;;;;;;;5324949;28;20064;-67
2022/03/02 13:05:30;;;;;;;10.20;6.47;;;;;;;;;;5325851;28;20285;-67
2022/03/02 13:08:17;;;;;;;9.98;5.78;;;;;;;;;;5325628;28;20103;-67
2022/03/02 13:10:49;;;;;;;9.18;6.68;;;;;;;;;;5324781;28;20030;-68
2022/03/02 13:13:34;;;;;;;9.98;6.07;;;;;;;;;;5326005;28;20047;-68
2022/03/02 13:16:16;;;;;;;10.27;7.00;;;;;;;;;;5324985;28;20107;-67
2022/03/02 13:18:48;;;;;;;14.45;6.60;;;;;;;;;;5325394;28;20023;-68
2022/03/02 13:21:22;;;;;;;12.45;7.32;;;;;;;;;;5325932;28;20038;-66
2022/03/02 13:24:13;;;;;;;10.93;6.65;;;;;;;;;;5324702;28;20080;-67
2022/03/02 13:26:56;;;;;;;9.63;5.60;;;;;;;;;;5325401;28;20030;-69
2022/03/02 13:29:47;;;;;;;10.82;7.25;;;;;;;;;;5325722;28;20377;-67
2022/03/02 13:32:19;;;;;;;11.82;7.85;;;;;;;;;;5325418;28;20028;-67
2022/03/02 13:35:06;;;;;;;11.52;7.60;;;;;;;;;;5325269;28;20407;-66
2022/03/02 13:37:53;;;;;;;9.43;7.13;;;;;;;;;;5324884;28;20024;-68
2022/03/02 13:40:44;;;;;;;11.35;7.57;;;;;;;;;;5325892;28;20015;-67
2022/03/02 13:43:15;;;;;;;12.88;8.27;;;;;;;;;;5325503;28;20096;-68
2022/03/02 13:45:48;;;;;;;12.77;7.80;;;;;;;;;;5324155;28;20051;-67
2022/03/02 13:48:21;;;;;;;11.70;8.63;;;;;;;;;;5325240;28;20490;-66
2022/03/02 13:50:58;;;;;;;12.75;7.43;;;;;;;;;;5324705;28;20023;-66
2022/03/02 13:53:45;;;;;;;9.90;7.13;;;;;;;;;;5325237;28;20043;-68
2022/03/02 13:56:29;;;;;;;12.77;7.63;;;;;;;;;;5325380;28;20399;-67
2022/03/02 13:59:01;;;;;;;12.80;7.00;;;;;;;;;;5324088;28;20019;-68
2022/03/02 14:01:32;;;;;;;10.35;7.40;;;;;;;;;;5325304;28;20386;-67
2022/03/02 14:04:07;;;;;;;11.93;7.07;;;;;;;;;;5324965;28;20027;-68
2022/03/02 14:06:40;;;;;;;10.55;8.02;;;;;;;;;;5324200;28;20066;-67
2022/03/02 14:09:12;;;;;;;9.23;6.95;;;;;;;;;;5324805;28;20098;-67
2022/03/02 14:11:50;;;;;;;11.13;7.25;;;;;;;;;;5325006;28;20077;-67
2022/03/02 14:14:28;;;;;;;11.70;7.17;;;;;;;;;;5324199;28;20058;-67
2022/03/02 14:17:04;;;;;;;9.98;7.07;;;;;;;;;;5324380;28;20024;-66
2022/03/02 14:19:39;;;;;;;11.05;7.20;;;;;;;;;;5323702;28;20012;-68
2022/03/02 14:22:13;;;;;;;13.43;6.95;;;;;;;;;;5324918;28;20020;-68
2022/03/02 14:24:46;;;;;;;13.13;6.75;;;;;;;;;;5324029;28;20020;-68
2022/03/02 14:27:18;;;;;;;11.25;6.78;;;;;;;;;;5324136;28;20091;-68
2022/03/02 14:29:59;;;;;;;11.23;6.50;;;;;;;;;;5324105;28;20378;-68
2022/03/02 14:32:32;;;;;;;11.27;6.32;;;;;;;;;;5324672;28;20553;-68
2022/03/02 14:35:05;;;;;;;12.13;7.03;;;;;;;;;;5323678;28;20057;-67
2022/03/02 14:37:39;;;;;;;12.25;7.03;;;;;;;;;;5324415;28;20371;-67
2022/03/02 14:40:13;;;;;;;11.63;6.47;;;;;;;;;;5323487;28;20439;-67
2022/03/02 14:42:49;;;;;;;10.15;6.13;;;;;;;;;;5323882;28;20039;-67
2022/03/02 14:45:30;;;;;;;8.63;6.25;;;;;;;;;;5324696;28;20033;-67
2022/03/02 14:48:15;;;;;;;11.63;6.55;;;;;;;;;;5323485;28;20025;-67
2022/03/02 14:50:50;;;;;;;13.32;7.88;;;;;;;;;;5323586;28;20016;-67
2022/03/02 14:53:21;;;;;;;11.23;6.47;;;;;;;;;;5324344;28;20039;-67
2022/03/02 14:55:57;;;;;;;13.32;6.50;;;;;;;;;;5322946;28;20041;-67
2022/03/02 14:58:38;;;;;;;13.05;6.60;;;;;;;;;;5322747;28;20023;-67
2022/03/02 15:01:23;;;;;;;11.02;6.25;;;;;;;;;;5323701;28;20027;-67